Time;durP1;ratioP1;P1;durP2;ratioP2;P2;SDS_P1;SDS_P2;PMS_P1;PMS_P2;Temp;Humidity;BMP_temperature;BMP_pressure;BME280_temperature;BME280_humidity;BME280_pressure;Samples;Min_cycle;Max_cycle;Signal;HPM_P1;HPM_P2
2023/06/27 00:03:55;;;;;;;;;;;;;;;24.88;37.96;95918.22;10405143;28;2319;-63
2023/06/27 00:08:55;;;;;;;;;;;;;;;24.87;37.81;95929.91;10408240;28;1984;-64
2023/06/27 00:13:58;;;;;;;;;;;;;;;24.85;37.82;95927.53;10400577;28;1976;-63
2023/06/27 00:19:02;;;;;;;;;;;;;;;24.84;37.75;95935.78;10414435;28;2204;-64
2023/06/27 00:24:03;;;;;;;;;;;;;;;24.85;37.68;95946.09;10376022;28;2227;-64
2023/06/27 00:29:03;;;;;;;;;;;;;;;24.84;37.62;95935.78;10410842;28;2066;-63
2023/06/27 00:34:03;;;;;;;;;;;;;;;24.83;37.53;95931.59;10410556;28;2017;-64
2023/06/27 00:39:04;;;;;;;;;;;;;;;24.82;37.49;95938.75;10391636;28;1960;-64
2023/06/27 00:44:05;;;;;;;;;;;;;;;24.82;37.43;95943.25;10405195;28;4501;-64
2023/06/27 00:49:06;;;;;;;;;;;;;;;24.81;37.49;95947.00;10408685;28;2063;-64
2023/06/27 00:54:07;;;;;;;;;;;;;;;24.80;37.59;95948.88;10401635;28;2091;-64
2023/06/27 00:59:07;;;;;;;;;;;;;;;24.80;37.41;95940.13;10403103;28;1895;-64
2023/06/27 01:04:07;;;;;;;;;;;;;;;24.78;36.97;95948.38;10400805;28;2288;-63
2023/06/27 01:09:22;;;;;;;;;;;;;;;24.78;37.29;95942.28;10409065;28;2007;-64
2023/06/27 01:14:23;;;;;;;;;;;;;;;24.78;37.23;95956.34;10378028;28;2322;-64
2023/06/27 01:19:25;;;;;;;;;;;;;;;24.77;37.18;95961.94;10398269;28;2004;-64
2023/06/27 01:24:25;;;;;;;;;;;;;;;24.78;37.23;95960.84;10405001;28;2205;-64
2023/06/27 01:29:26;;;;;;;;;;;;;;;24.75;37.19;95962.22;10398549;28;2225;-64
2023/06/27 01:34:36;;;;;;;;;;;;;;;24.75;36.96;95966.75;10405344;28;2008;-63
2023/06/27 01:39:41;;;;;;;;;;;;;;;24.74;37.01;95965.16;10397198;28;2245;-64
2023/06/27 01:44:42;;;;;;;;;;;;;;;24.75;37.07;95958.78;10399101;28;4368;-64
2023/06/27 01:49:42;;;;;;;;;;;;;;;24.74;37.04;95960.66;10373512;28;2223;-63
2023/06/27 01:54:43;;;;;;;;;;;;;;;24.74;36.87;95971.25;10399026;28;1980;-64
2023/06/27 01:59:43;;;;;;;;;;;;;;;24.74;36.97;95970.47;10396204;28;1965;-64
2023/06/27 02:04:43;;;;;;;;;;;;;;;24.74;37.19;95958.00;10398074;28;2219;-64
2023/06/27 02:09:44;;;;;;;;;;;;;;;24.72;37.07;95952.19;10385751;28;2376;-64
2023/06/27 02:14:44;;;;;;;;;;;;;;;24.74;37.17;95957.22;10401981;28;2103;-64
2023/06/27 02:19:44;;;;;;;;;;;;;;;24.72;37.00;95949.53;10389548;28;1980;-64
2023/06/27 02:24:44;;;;;;;;;;;;;;;24.72;36.94;95951.38;10404075;28;2186;-64
2023/06/27 02:29:45;;;;;;;;;;;;;;;24.71;37.06;95952.47;10393384;28;2007;-64
2023/06/27 02:34:45;;;;;;;;;;;;;;;24.73;36.97;95955.63;10418141;28;2039;-64
2023/06/27 02:39:46;;;;;;;;;;;;;;;24.72;36.91;95948.75;10408280;28;1976;-64
2023/06/27 02:44:48;;;;;;;;;;;;;;;24.70;37.05;95962.28;10403044;28;1961;-64
2023/06/27 02:49:48;;;;;;;;;;;;;;;24.71;36.85;95957.78;10415355;28;1972;-64
2023/06/27 02:54:49;;;;;;;;;;;;;;;24.69;36.82;95954.66;10407206;28;1994;-64
2023/06/27 02:59:49;;;;;;;;;;;;;;;24.70;36.71;95950.91;10414334;28;1972;-64
2023/06/27 03:04:50;;;;;;;;;;;;;;;24.68;36.61;95955.72;10410989;28;2341;-64
2023/06/27 03:09:50;;;;;;;;;;;;;;;24.66;36.56;95965.81;10421098;28;2031;-64
2023/06/27 03:14:50;;;;;;;;;;;;;;;24.65;36.68;95972.97;10401167;28;1964;-64
2023/06/27 03:19:50;;;;;;;;;;;;;;;24.65;36.82;95974.84;10410889;28;2037;-64
2023/06/27 03:24:51;;;;;;;;;;;;;;;24.64;36.47;95971.44;10408671;28;1937;-64
2023/06/27 03:29:51;;;;;;;;;;;;;;;24.63;36.64;95980.44;10387535;28;2027;-64
2023/06/27 03:34:51;;;;;;;;;;;;;;;24.62;36.69;95978.88;10406512;28;2060;-64
2023/06/27 03:39:52;;;;;;;;;;;;;;;24.62;36.67;95986.84;10408349;28;2020;-64
2023/06/27 03:44:52;;;;;;;;;;;;;;;24.63;36.48;95993.69;10411374;28;4462;-64
2023/06/27 03:49:52;;;;;;;;;;;;;;;24.62;36.62;95988.69;10405383;28;1945;-64
2023/06/27 03:54:52;;;;;;;;;;;;;;;24.62;36.66;95988.69;10407153;28;1988;-64
2023/06/27 03:59:53;;;;;;;;;;;;;;;24.61;36.89;95993.22;10406830;28;1971;-64
2023/06/27 04:04:53;;;;;;;;;;;;;;;24.59;36.60;95989.28;10410576;28;2321;-64
2023/06/27 04:09:53;;;;;;;;;;;;;;;24.59;36.32;95986.63;10409822;28;1937;-64
2023/06/27 04:14:54;;;;;;;;;;;;;;;24.59;36.60;95991.91;10407121;28;2329;-64
2023/06/27 04:19:54;;;;;;;;;;;;;;;24.57;36.18;95997.53;10406239;28;2026;-64
2023/06/27 04:24:54;;;;;;;;;;;;;;;24.55;36.14;95991.72;10407713;28;1989;-64
2023/06/27 04:29:54;;;;;;;;;;;;;;;24.54;36.04;96005.28;10409309;28;1965;-63
2023/06/27 04:34:58;;;;;;;;;;;;;;;24.53;36.28;96006.34;10414480;28;1969;-64
2023/06/27 04:39:58;;;;;;;;;;;;;;;24.52;35.87;96012.75;10405671;28;2051;-64
2023/06/27 04:44:58;;;;;;;;;;;;;;;24.50;35.92;96009.59;10407142;28;4572;-63
2023/06/27 04:49:59;;;;;;;;;;;;;;;24.51;35.98;96029.69;10409793;28;2073;-64
2023/06/27 04:54:59;;;;;;;;;;;;;;;24.50;36.08;96015.69;10405894;28;1990;-65
2023/06/27 04:59:59;;;;;;;;;;;;;;;24.49;35.89;96029.22;10400950;28;2305;-60
2023/06/27 05:04:59;;;;;;;;;;;;;;;24.49;36.22;96030.00;10411425;28;2277;-64
2023/06/27 05:10:00;;;;;;;;;;;;;;;24.50;35.97;96022.84;10402595;28;1949;-64
2023/06/27 05:15:00;;;;;;;;;;;;;;;24.51;36.16;96037.66;10400644;28;2014;-68
2023/06/27 05:20:00;;;;;;;;;;;;;;;24.51;36.09;96030.50;10407438;28;2016;-68
2023/06/27 05:25:00;;;;;;;;;;;;;;;24.52;36.22;96029.44;10398926;28;1980;-67
2023/06/27 05:30:01;;;;;;;;;;;;;;;24.53;36.07;96040.78;10405238;28;1924;-65
2023/06/27 05:35:01;;;;;;;;;;;;;;;24.52;36.21;96050.63;10392350;28;1966;-65
2023/06/27 05:40:01;;;;;;;;;;;;;;;24.53;35.93;96048.75;10406922;28;1972;-65
2023/06/27 05:45:02;;;;;;;;;;;;;;;24.51;35.81;96038.44;10412007;28;2115;-65
2023/06/27 05:50:02;;;;;;;;;;;;;;;24.51;35.98;96037.66;10409565;28;2083;-65
2023/06/27 05:55:03;;;;;;;;;;;;;;;24.50;35.89;96050.13;10389848;28;2389;-65
2023/06/27 06:00:03;;;;;;;;;;;;;;;24.51;35.75;96035.78;10405828;28;2000;-63
2023/06/27 06:05:05;;;;;;;;;;;;;;;24.50;35.88;96039.53;10407803;28;1911;-63
2023/06/27 06:10:05;;;;;;;;;;;;;;;24.52;35.96;96039.25;10405825;28;1943;-67
2023/06/27 06:15:06;;;;;;;;;;;;;;;24.53;35.96;96035.50;10401373;28;2165;-67
2023/06/27 06:20:09;;;;;;;;;;;;;;;24.58;36.43;96033.56;10405412;28;2000;-66
2023/06/27 06:25:10;;;;;;;;;;;;;;;24.63;36.46;96035.31;10397943;28;1950;-66
2023/06/27 06:30:10;;;;;;;;;;;;;;;24.67;36.45;96036.31;10401619;28;2087;-65
2023/06/27 06:35:11;;;;;;;;;;;;;;;24.69;36.59;96048.19;10397528;28;1969;-67
2023/06/27 06:40:11;;;;;;;;;;;;;;;24.72;36.92;96049.47;10406389;28;1887;-65
2023/06/27 06:45:11;;;;;;;;;;;;;;;24.74;36.97;96058.75;10395548;28;4478;-64
2023/06/27 06:50:12;;;;;;;;;;;;;;;24.77;36.82;96068.00;10394029;28;2242;-65
2023/06/27 06:55:12;;;;;;;;;;;;;;;24.77;36.93;96063.44;10391547;28;1952;-65
2023/06/27 07:00:13;;;;;;;;;;;;;;;24.77;36.99;96063.44;10386876;28;2047;-65
2023/06/27 07:05:13;;;;;;;;;;;;;;;24.79;36.98;96071.91;10385520;28;1875;-65
2023/06/27 07:10:14;;;;;;;;;;;;;;;24.79;37.04;96069.25;10393255;28;1898;-64
2023/06/27 07:15:15;;;;;;;;;;;;;;;24.78;36.82;96065.03;10392101;28;1981;-64
2023/06/27 07:20:16;;;;;;;;;;;;;;;24.80;37.08;96062.09;10398788;28;1965;-65
2023/06/27 07:25:16;;;;;;;;;;;;;;;24.80;37.01;96046.19;10402941;28;1962;-65
2023/06/27 07:30:16;;;;;;;;;;;;;;;24.81;37.16;96037.91;10412758;28;1847;-64
2023/06/27 07:35:17;;;;;;;;;;;;;;;24.84;37.32;96047.16;10398307;28;1977;-64
2023/06/27 07:40:17;;;;;;;;;;;;;;;24.86;37.56;96050.31;10401825;28;1819;-64
2023/06/27 07:45:17;;;;;;;;;;;;;;;24.86;37.59;96051.09;10402137;28;2019;-64
2023/06/27 07:50:17;;;;;;;;;;;;;;;24.88;37.35;96048.16;10397372;28;2405;-64
2023/06/27 07:55:18;;;;;;;;;;;;;;;24.88;37.45;96051.59;10391272;28;1934;-64
2023/06/27 08:00:18;;;;;;;;;;;;;;;24.89;37.73;96041.78;10403077;28;2257;-65
2023/06/27 08:05:18;;;;;;;;;;;;;;;24.90;37.73;96041.47;10401111;28;1852;-65
2023/06/27 08:10:19;;;;;;;;;;;;;;;24.89;37.63;96044.44;10398741;28;1898;-64
2023/06/27 08:15:19;;;;;;;;;;;;;;;24.88;37.08;96037.53;10397687;28;1957;-64
2023/06/27 08:20:19;;;;;;;;;;;;;;;24.86;36.61;96034.41;10396245;28;2149;-65
2023/06/27 08:25:20;;;;;;;;;;;;;;;24.83;36.42;96030.47;10385043;28;2047;-64
2023/06/27 08:30:20;;;;;;;;;;;;;;;24.82;36.43;96036.84;10378985;28;1873;-64
2023/06/27 08:35:20;;;;;;;;;;;;;;;24.83;36.59;96033.09;10384170;28;2013;-65
2023/06/27 08:40:24;;;;;;;;;;;;;;;24.83;36.52;96033.09;10394887;28;1906;-65
2023/06/27 08:45:24;;;;;;;;;;;;;;;24.82;36.34;96018.28;10393156;28;4415;-64
2023/06/27 08:50:25;;;;;;;;;;;;;;;24.82;36.32;96026.25;10396668;28;1873;-65
2023/06/27 08:55:48;;;;;;;;;;;;;;;24.84;36.39;96025.94;10401762;28;1902;-64
2023/06/27 09:00:48;;;;;;;;;;;;;;;24.83;36.21;96017.19;10392524;28;1921;-65
2023/06/27 09:05:49;;;;;;;;;;;;;;;24.82;36.27;96014.84;10393135;28;1865;-64
2023/06/27 09:10:49;;;;;;;;;;;;;;;24.84;36.27;96016.13;10395253;28;1937;-64
2023/06/27 09:15:50;;;;;;;;;;;;;;;24.86;36.53;96006.03;10392478;28;1971;-64
2023/06/27 09:20:51;;;;;;;;;;;;;;;24.87;36.47;96020.06;10399101;28;1839;-64
2023/06/27 09:26:04;;;;;;;;;;;;;;;24.86;36.25;96013.19;10379433;28;1877;-64
2023/06/27 09:31:05;;;;;;;;;;;;;;;24.87;36.25;96020.84;10399520;28;1901;-64
2023/06/27 09:36:05;;;;;;;;;;;;;;;24.88;36.26;96011.81;10397493;28;1910;-64
2023/06/27 09:41:06;;;;;;;;;;;;;;;24.88;36.31;96005.72;10389322;28;4895;-64
2023/06/27 09:46:06;;;;;;;;;;;;;;;24.89;36.70;95996.69;10377525;28;1916;-64
2023/06/27 09:51:08;;;;;;;;;;;;;;;24.91;36.40;95989.22;10393747;28;1894;-64
2023/06/27 09:56:08;;;;;;;;;;;;;;;24.91;36.59;95986.59;10393850;28;2013;-65
2023/06/27 10:01:09;;;;;;;;;;;;;;;24.93;36.58;95987.06;10393623;28;2039;-63
2023/06/27 10:06:09;;;;;;;;;;;;;;;24.95;36.83;95991.00;10389659;28;2042;-64
2023/06/27 10:11:09;;;;;;;;;;;;;;;24.97;36.93;95972.13;10401737;28;1942;-64
2023/06/27 10:16:10;;;;;;;;;;;;;;;24.98;36.86;95981.66;10402653;28;2021;-64
2023/06/27 10:21:10;;;;;;;;;;;;;;;24.99;36.84;95972.63;10390181;28;1875;-64
2023/06/27 10:26:10;;;;;;;;;;;;;;;25.00;37.18;95971.53;10394229;28;1863;-64
2023/06/27 10:31:10;;;;;;;;;;;;;;;25.02;37.27;95966.72;10401929;28;2034;-64
2023/06/27 10:36:11;;;;;;;;;;;;;;;25.04;37.47;95980.47;10385365;28;2451;-63
2023/06/27 10:41:12;;;;;;;;;;;;;;;25.05;37.37;95979.41;10393260;28;1957;-64
2023/06/27 10:46:27;;;;;;;;;;;;;;;25.06;37.52;95964.28;10395621;28;1948;-64
2023/06/27 10:51:38;;;;;;;;;;;;;;;25.07;37.52;95971.94;10395109;28;1891;-63
2023/06/27 10:56:39;;;;;;;;;;;;;;;25.08;37.70;95978.78;10400808;28;1963;-65
2023/06/27 11:01:43;;;;;;;;;;;;;;;25.10;37.85;95978.50;10397654;28;2009;-65
2023/06/27 11:06:45;;;;;;;;;;;;;;;25.11;37.97;95978.22;10399264;28;1891;-65
2023/06/27 11:11:55;;;;;;;;;;;;;;;25.11;37.82;95967.59;10402064;28;1900;-65
2023/06/27 11:16:55;;;;;;;;;;;;;;;25.12;37.95;95963.09;10396747;28;1973;-65
2023/06/27 11:21:56;;;;;;;;;;;;;;;25.13;38.09;95964.66;10397265;28;1855;-65
2023/06/27 11:26:57;;;;;;;;;;;;;;;25.15;37.89;95978.41;10397051;28;1906;-65
2023/06/27 11:31:57;;;;;;;;;;;;;;;25.14;38.00;95967.03;10385095;28;2226;-65
2023/06/27 11:36:57;;;;;;;;;;;;;;;25.15;38.17;95967.78;10380719;28;1910;-65
2023/06/27 11:41:58;;;;;;;;;;;;;;;25.16;38.15;95962.19;10404655;28;1918;-66
2023/06/27 11:46:58;;;;;;;;;;;;;;;25.16;38.04;95962.19;10399735;28;1489;-64
2023/06/27 11:51:58;;;;;;;;;;;;;;;25.15;37.83;95952.66;10400305;28;1477;-66
2023/06/27 11:57:00;;;;;;;;;;;;;;;25.16;37.84;95948.94;10401337;28;1961;-65
2023/06/27 12:02:01;;;;;;;;;;;;;;;25.17;37.77;95944.41;10394794;28;1898;-65
2023/06/27 12:07:21;;;;;;;;;;;;;;;25.17;37.80;95937.22;10396451;28;1844;-66
2023/06/27 12:12:22;;;;;;;;;;;;;;;25.15;37.41;95935.94;10396391;28;1966;-65
2023/06/27 12:17:22;;;;;;;;;;;;;;;25.12;37.21;95942.66;10395463;28;1910;-67
2023/06/27 12:22:23;;;;;;;;;;;;;;;25.11;36.84;95942.94;10397877;28;1957;-65
2023/06/27 12:27:23;;;;;;;;;;;;;;;25.11;37.01;95935.78;10394158;28;2386;-65
2023/06/27 12:32:23;;;;;;;;;;;;;;;25.10;37.02;95923.56;10392716;28;1886;-64
2023/06/27 12:37:24;;;;;;;;;;;;;;;25.11;36.93;95924.38;10395555;28;1970;-64
2023/06/27 12:42:24;;;;;;;;;;;;;;;25.11;37.28;95914.53;10394816;28;4570;-65
2023/06/27 12:47:24;;;;;;;;;;;;;;;25.10;36.87;95915.63;10396460;28;1986;-65
2023/06/27 12:52:24;;;;;;;;;;;;;;;25.11;37.03;95911.91;10391622;28;1783;-65
2023/06/27 12:57:25;;;;;;;;;;;;;;;25.11;36.96;95903.16;10397117;28;1938;-65
2023/06/27 13:02:25;;;;;;;;;;;;;;;25.12;36.75;95902.06;10393550;28;1981;-65
2023/06/27 13:07:25;;;;;;;;;;;;;;;25.11;36.85;95898.63;10400153;28;1922;-64
2023/06/27 13:12:26;;;;;;;;;;;;;;;25.11;37.12;95888.03;10394801;28;1906;-65
2023/06/27 13:17:26;;;;;;;;;;;;;;;25.12;37.23;95886.94;10398431;28;1914;-65
2023/06/27 13:22:27;;;;;;;;;;;;;;;25.15;37.37;95885.53;10394179;28;1886;-65
2023/06/27 13:27:27;;;;;;;;;;;;;;;25.16;37.70;95874.66;10396662;28;2406;-65
2023/06/27 13:32:31;;;;;;;;;;;;;;;25.17;37.40;95865.59;10379901;28;1915;-65
2023/06/27 13:37:31;;;;;;;;;;;;;;;25.18;37.54;95869.84;10398775;28;1941;-65
2023/06/27 13:42:31;;;;;;;;;;;;;;;25.20;37.77;95874.84;10397307;28;4510;-65
2023/06/27 13:47:32;;;;;;;;;;;;;;;25.18;37.64;95856.56;10396958;28;2164;-65
2023/06/27 13:52:33;;;;;;;;;;;;;;;25.19;37.69;95863.44;10393856;28;1915;-65
2023/06/27 13:57:34;;;;;;;;;;;;;;;25.21;37.70;95863.13;10390921;28;2155;-65
2023/06/27 14:02:34;;;;;;;;;;;;;;;25.22;37.59;95868.16;10396239;28;1879;-65
2023/06/27 14:07:34;;;;;;;;;;;;;;;25.21;37.73;95861.25;10389841;28;1886;-65
2023/06/27 14:12:34;;;;;;;;;;;;;;;25.18;37.06;95853.91;10378217;28;1988;-64
2023/06/27 14:17:35;;;;;;;;;;;;;;;25.19;37.30;95857.34;10392364;28;1971;-65
2023/06/27 14:22:35;;;;;;;;;;;;;;;25.18;37.20;95851.28;10396354;28;2046;-63
2023/06/27 14:27:36;;;;;;;;;;;;;;;25.17;37.27;95852.34;10388607;28;2108;-65
2023/06/27 14:32:36;;;;;;;;;;;;;;;25.16;36.98;95836.72;10406234;28;1906;-65
2023/06/27 14:37:36;;;;;;;;;;;;;;;25.16;36.81;95836.72;10402904;28;2046;-65
2023/06/27 14:42:37;;;;;;;;;;;;;;;25.15;36.81;95835.94;10404677;28;4532;-65
2023/06/27 14:47:37;;;;;;;;;;;;;;;25.14;36.85;95834.38;10418176;28;2013;-65
2023/06/27 14:52:37;;;;;;;;;;;;;;;25.15;36.60;95833.28;10405581;28;1988;-65
2023/06/27 14:57:38;;;;;;;;;;;;;;;25.13;36.45;95832.81;10403115;28;1922;-66
2023/06/27 15:02:38;;;;;;;;;;;;;;;25.12;36.27;95831.25;10404086;28;1826;-65
2023/06/27 15:07:39;;;;;;;;;;;;;;;25.10;36.20;95830.75;10402605;28;1942;-65
2023/06/27 15:12:40;;;;;;;;;;;;;;;25.10;36.35;95819.38;10404312;28;1910;-65
2023/06/27 15:17:40;;;;;;;;;;;;;;;25.10;36.52;95822.78;10402567;28;2407;-65
2023/06/27 15:22:41;;;;;;;;;;;;;;;25.11;36.43;95819.06;10400522;28;2038;-64
2023/06/27 15:27:41;;;;;;;;;;;;;;;25.12;36.50;95820.63;10399762;28;1897;-65
2023/06/27 15:32:41;;;;;;;;;;;;;;;25.11;36.27;95829.66;10397829;28;1910;-65
2023/06/27 15:37:42;;;;;;;;;;;;;;;25.11;36.18;95823.56;10395960;28;2017;-65
2023/06/27 15:42:43;;;;;;;;;;;;;;;25.11;36.08;95818.25;10391201;28;4598;-65
2023/06/27 15:47:43;;;;;;;;;;;;;;;25.10;36.30;95806.88;10401882;28;1838;-65
2023/06/27 15:52:43;;;;;;;;;;;;;;;25.11;36.75;95811.09;10401464;28;1878;-65
2023/06/27 15:57:44;;;;;;;;;;;;;;;25.12;36.31;95812.69;10394855;28;2002;-64
2023/06/27 16:02:44;;;;;;;;;;;;;;;25.12;36.54;95807.38;10395897;28;1839;-64
2023/06/27 16:07:45;;;;;;;;;;;;;;;25.13;36.61;95800.19;10401028;28;2025;-64
2023/06/27 16:12:46;;;;;;;;;;;;;;;25.04;35.63;95800.91;10387396;28;2054;-64
2023/06/27 16:17:46;;;;;;;;;;;;;;;24.87;34.38;95800.75;10392617;28;1922;-67
2023/06/27 16:22:46;;;;;;;;;;;;;;;24.70;34.08;95778.59;10395780;28;2097;-68
2023/06/27 16:27:49;;;;;;;;;;;;;;;24.54;33.64;95783.47;10380524;28;1898;-67
2023/06/27 16:32:50;;;;;;;;;;;;;;;24.48;34.08;95784.66;10394456;28;1883;-68
2023/06/27 16:37:50;;;;;;;;;;;;;;;24.42;34.03;95793.75;10398032;28;1981;-67
2023/06/27 16:42:50;;;;;;;;;;;;;;;24.34;34.04;95793.69;10394832;28;4435;-66
2023/06/27 16:47:50;;;;;;;;;;;;;;;24.29;34.09;95788.47;10398900;28;1815;-66
2023/06/27 16:52:51;;;;;;;;;;;;;;;24.23;34.17;95785.94;10392835;28;2051;-66
2023/06/27 16:57:51;;;;;;;;;;;;;;;24.17;34.23;95789.75;10396389;28;1981;-66
2023/06/27 17:02:51;;;;;;;;;;;;;;;24.09;34.13;95798.41;10394764;28;1843;-65
2023/06/27 17:07:52;;;;;;;;;;;;;;;24.07;34.07;95797.16;10382771;28;1911;-65
2023/06/27 17:12:52;;;;;;;;;;;;;;;24.03;34.29;95791.63;10396838;28;2396;-65
2023/06/27 17:17:52;;;;;;;;;;;;;;;23.99;34.00;95789.81;10402095;28;2032;-66
2023/06/27 17:22:53;;;;;;;;;;;;;;;24.05;34.50;95789.47;10404869;28;1915;-65
2023/06/27 17:27:53;;;;;;;;;;;;;;;24.08;34.76;95796.84;10397496;28;1875;-64
2023/06/27 17:32:54;;;;;;;;;;;;;;;24.12;34.81;95799.69;10400302;28;1851;-65
2023/06/27 17:37:54;;;;;;;;;;;;;;;24.11;34.55;95798.13;10404957;28;1994;-65
2023/06/27 17:42:54;;;;;;;;;;;;;;;24.15;34.79;95794.56;10405515;28;4487;-64
2023/06/27 17:47:54;;;;;;;;;;;;;;;24.15;34.33;95789.28;10425498;28;1933;-65
2023/06/27 17:52:58;;;;;;;;;;;;;;;24.12;34.10;95791.72;10402120;28;1934;-65
2023/06/27 17:57:59;;;;;;;;;;;;;;;24.10;34.43;95789.38;10400616;28;1993;-65
2023/06/27 18:02:59;;;;;;;;;;;;;;;24.07;34.10;95783.91;10405766;28;1847;-65
2023/06/27 18:07:59;;;;;;;;;;;;;;;24.05;34.10;95792.13;10401602;28;2312;-64
2023/06/27 18:13:00;;;;;;;;;;;;;;;24.01;33.82;95780.53;10400423;28;1978;-66
2023/06/27 18:18:02;;;;;;;;;;;;;;;24.00;33.53;95786.91;10398538;28;2070;-63
2023/06/27 18:23:03;;;;;;;;;;;;;;;23.97;33.44;95784.84;10388775;28;1901;-63
2023/06/27 18:28:03;;;;;;;;;;;;;;;23.96;33.14;95785.13;10401584;28;1897;-63
2023/06/27 18:33:05;;;;;;;;;;;;;;;23.91;32.88;95780.72;10411197;28;1898;-63
2023/06/27 18:38:06;;;;;;;;;;;;;;;23.89;32.79;95777.56;10403032;28;1902;-62
2023/06/27 18:43:06;;;;;;;;;;;;;;;23.85;32.75;95771.31;10400414;28;4459;-61
2023/06/27 18:48:06;;;;;;;;;;;;;;;23.82;32.73;95761.28;10399877;28;1832;-63
2023/06/27 18:53:07;;;;;;;;;;;;;;;23.82;32.66;95757.88;10405573;28;1863;-64
2023/06/27 18:58:07;;;;;;;;;;;;;;;23.83;32.79;95756.78;10403885;28;1981;-62
2023/06/27 19:03:07;;;;;;;;;;;;;;;23.80;32.26;95765.31;10400219;28;2334;-63
2023/06/27 19:08:09;;;;;;;;;;;;;;;23.79;32.33;95761.09;10402917;28;1863;-62
2023/06/27 19:13:11;;;;;;;;;;;;;;;23.78;32.40;95762.19;10379602;28;2069;-61
2023/06/27 19:18:11;;;;;;;;;;;;;;;23.69;32.13;95764.72;10404777;28;1906;-61
2023/06/27 19:23:11;;;;;;;;;;;;;;;23.71;32.27;95770.50;10406402;28;1879;-60
2023/06/27 19:28:12;;;;;;;;;;;;;;;23.63;32.25;95779.13;10404019;28;2116;-61
2023/06/27 19:33:12;;;;;;;;;;;;;;;23.64;32.23;95782.56;10405923;28;1895;-60
2023/06/27 19:38:13;;;;;;;;;;;;;;;23.64;32.37;95780.69;10392118;28;1902;-63
2023/06/27 19:43:13;;;;;;;;;;;;;;;23.60;32.24;95789.50;10411015;28;4541;-59
2023/06/27 19:48:13;;;;;;;;;;;;;;;23.59;32.40;95793.22;10408948;28;1843;-64
2023/06/27 19:53:17;;;;;;;;;;;;;;;23.59;32.31;95798.53;10410249;28;1890;-64
2023/06/27 19:58:17;;;;;;;;;;;;;;;23.60;32.41;95792.94;10404013;28;2787;-64
2023/06/27 20:03:17;;;;;;;;;;;;;;;23.61;32.57;95791.06;10391129;28;2110;-64
2023/06/27 20:08:18;;;;;;;;;;;;;;;23.61;32.67;95791.88;10406346;28;1930;-64
2023/06/27 20:13:19;;;;;;;;;;;;;;;23.62;32.90;95804.00;10412366;28;1910;-62
2023/06/27 20:18:20;;;;;;;;;;;;;;;23.62;33.04;95790.78;10401968;28;1956;-62
2023/06/27 20:23:20;;;;;;;;;;;;;;;23.58;32.50;95804.88;10404724;28;2176;-62
2023/06/27 20:28:20;;;;;;;;;;;;;;;23.57;32.70;95801.47;10407305;28;1918;-62
2023/06/27 20:33:21;;;;;;;;;;;;;;;23.50;32.20;95803.69;10414289;28;1964;-62
2023/06/27 20:38:21;;;;;;;;;;;;;;;23.44;32.21;95802.22;10405060;28;1941;-62
2023/06/27 20:43:21;;;;;;;;;;;;;;;23.37;32.46;95805.22;10407306;28;4518;-62
2023/06/27 20:48:22;;;;;;;;;;;;;;;23.35;32.51;95807.38;10407827;28;1893;-62
2023/06/27 20:53:22;;;;;;;;;;;;;;;23.30;32.49;95794.22;10404684;28;2084;-62
2023/06/27 20:58:22;;;;;;;;;;;;;;;23.29;32.36;95792.63;10401915;28;2027;-61
2023/06/27 21:03:23;;;;;;;;;;;;;;;23.25;32.49;95788.19;10404847;28;1870;-62
2023/06/27 21:08:23;;;;;;;;;;;;;;;23.23;32.67;95791.13;10406120;28;1898;-62
2023/06/27 21:13:26;;;;;;;;;;;;;;;23.22;32.84;95794.09;10408465;28;2159;-62
2023/06/27 21:18:26;;;;;;;;;;;;;;;23.21;32.70;95792.50;10403031;28;1926;-62
2023/06/27 21:23:26;;;;;;;;;;;;;;;23.24;32.82;95794.59;10381428;28;2043;-62
2023/06/27 21:28:26;;;;;;;;;;;;;;;23.20;33.18;95796.22;10400833;28;1943;-62
2023/06/27 21:33:27;;;;;;;;;;;;;;;23.17;33.18;95796.78;10397824;28;1882;-61
2023/06/27 21:38:27;;;;;;;;;;;;;;;23.21;33.74;95805.72;10401843;28;2136;-62
2023/06/27 21:43:28;;;;;;;;;;;;;;;23.18;33.56;95808.97;10402886;28;4340;-62
2023/06/27 21:48:28;;;;;;;;;;;;;;;23.10;33.80;95793.75;10395427;28;1887;-61
2023/06/27 21:53:28;;;;;;;;;;;;;;;23.07;33.74;95802.25;10403935;28;2270;-62
2023/06/27 21:58:28;;;;;;;;;;;;;;;23.00;33.83;95799.19;10393180;28;1957;-61
2023/06/27 22:03:33;;;;;;;;;;;;;;;23.06;33.98;95806.75;10396020;28;1911;-62
2023/06/27 22:08:34;;;;;;;;;;;;;;;23.13;34.30;95811.66;10401294;28;1855;-61
2023/06/27 22:13:34;;;;;;;;;;;;;;;23.15;34.16;95807.66;10406495;28;1982;-62
2023/06/27 22:18:34;;;;;;;;;;;;;;;23.22;34.70;95809.94;10398410;28;1906;-62
2023/06/27 22:23:34;;;;;;;;;;;;;;;23.18;34.90;95803.66;10402977;28;1831;-61
2023/06/27 22:28:35;;;;;;;;;;;;;;;23.11;34.79;95792.66;10396114;28;1982;-62
2023/06/27 22:33:36;;;;;;;;;;;;;;;23.03;34.78;95788.03;10399350;28;1942;-61
2023/06/27 22:38:37;;;;;;;;;;;;;;;22.93;34.95;95780.25;10400562;28;1906;-62
2023/06/27 22:43:37;;;;;;;;;;;;;;;22.91;35.17;95782.41;10405828;28;4614;-62
2023/06/27 22:48:37;;;;;;;;;;;;;;;22.91;35.23;95787.69;10407021;28;2419;-62
2023/06/27 22:53:43;;;;;;;;;;;;;;;22.87;35.42;95784.84;10413075;28;2120;-63
2023/06/27 22:58:43;;;;;;;;;;;;;;;22.85;35.30;95788.84;10407524;28;1909;-61
2023/06/27 23:03:44;;;;;;;;;;;;;;;22.81;35.30;95787.84;10408045;28;2082;-62
2023/06/27 23:08:44;;;;;;;;;;;;;;;22.87;35.20;95798.06;10408578;28;2153;-61
2023/06/27 23:13:44;;;;;;;;;;;;;;;22.88;35.13;95796.19;10407692;28;2118;-62
2023/06/27 23:18:45;;;;;;;;;;;;;;;22.94;35.38;95789.75;10410207;28;2038;-62
2023/06/27 23:23:45;;;;;;;;;;;;;;;22.87;34.80;95791.97;10411808;28;1847;-62
2023/06/27 23:28:49;;;;;;;;;;;;;;;22.83;34.92;95772.47;10394065;28;2041;-63
2023/06/27 23:33:50;;;;;;;;;;;;;;;22.85;35.61;95783.56;10412354;28;2043;-63
2023/06/27 23:38:50;;;;;;;;;;;;;;;22.91;35.94;95790.34;10414881;28;1977;-63
2023/06/27 23:43:51;;;;;;;;;;;;;;;22.89;36.64;95795.91;10408338;28;4494;-63
2023/06/27 23:48:51;;;;;;;;;;;;;;;22.72;37.09;95805.41;10401306;28;1880;-63
2023/06/27 23:53:52;;;;;;;;;;;;;;;22.70;37.79;95794.34;10402746;28;1454;-62
2023/06/27 23:58:52;;;;;;;;;;;;;;;22.61;38.19;95797.63;10399884;28;1967;-63
